Terminal Aerodrome Forecast
Issued by NWS Sterling, VA

Current Version | Previous Version | Text Only | Print | Product List | Glossary Off
Versions: 1 2 3 4 5 6 7 8 9 10 11 12 13 14 15 16 17 18 19 20 21 22 23 24 25

000
FTUS41 KLWX 291600 AAB
TAFIAD
TAF AMD
KIAD 291612Z 2916/3018 00000KT 6SM -RA OVC090
     FM291800 VRB03KT P6SM OVC130=

USA.gov is the U.S. government's official web portal to all federal, state and local government web resources and services.